Time;durP1;ratioP1;P1;durP2;ratioP2;P2;SDS_P1;SDS_P2;PMS_P1;PMS_P2;Temp;Humidity;BMP_temperature;BMP_pressure;BME280_temperature;BME280_humidity;BME280_pressure;Samples;Min_cycle;Max_cycle;Signal;HPM_P1;HPM_P2
2022/10/27 00:01:02;;;;;;;3.70;1.20;;;17.00;90.90;;;;;;4907888;29;20028;-76
2022/10/27 00:03:28;;;;;;;3.45;1.40;;;17.00;91.00;;;;;;4909440;29;20604;-78
2022/10/27 00:05:53;;;;;;;4.70;1.55;;;17.10;91.00;;;;;;4906680;29;20487;-77
2022/10/27 00:08:20;;;;;;;3.78;1.50;;;17.00;91.00;;;;;;4891709;29;20549;-77
2022/10/27 00:11:07;;;;;;;4.18;1.30;;;17.00;91.10;;;;;;4908101;29;20021;-76
2022/10/27 00:13:33;;;;;;;3.45;1.50;;;17.00;91.10;;;;;;4891911;29;20040;-77
2022/10/27 00:16:00;;;;;;;4.05;1.42;;;17.00;91.10;;;;;;4908426;29;20399;-76
2022/10/27 00:18:26;;;;;;;3.88;1.50;;;17.00;91.10;;;;;;4891681;29;20035;-77
2022/10/27 00:21:06;;;;;;;2.97;1.40;;;17.00;91.10;;;;;;4891898;29;20430;-77
2022/10/27 00:23:32;;;;;;;2.70;1.30;;;17.00;91.10;;;;;;4912818;29;20032;-77
2022/10/27 00:25:59;;;;;;;3.03;1.40;;;17.00;91.10;;;;;;4895512;29;20028;-77
2022/10/27 00:28:26;;;;;;;4.82;1.60;;;17.00;91.10;;;;;;4912846;29;20119;-76
2022/10/27 00:31:21;;;;;;;3.67;1.30;;;17.00;91.10;;;;;;4895346;29;20119;-77
2022/10/27 00:33:48;;;;;;;4.05;1.40;;;17.00;91.10;;;;;;4891305;29;20183;-77
2022/10/27 00:36:20;;;;;;;3.55;1.30;;;17.00;91.10;;;;;;4912239;29;20091;-76
2022/10/27 00:38:46;;;;;;;3.85;1.40;;;17.00;91.10;;;;;;4887987;29;20107;-76
2022/10/27 00:41:38;;;;;;;2.67;1.30;;;17.00;91.00;;;;;;4910448;29;20036;-76
2022/10/27 00:44:33;;;;;;;2.70;1.08;;;17.00;91.00;;;;;;4912554;29;20059;-76
2022/10/27 00:47:02;;;;;;;2.63;1.23;;;17.00;90.90;;;;;;4910710;29;20028;-75
2022/10/27 00:49:32;;;;;;;3.47;1.23;;;17.00;90.90;;;;;;4912247;29;20067;-76
2022/10/27 00:52:01;;;;;;;2.88;1.40;;;17.00;90.90;;;;;;4911946;29;20024;-76
2022/10/27 00:54:30;;;;;;;3.03;1.23;;;16.90;90.80;;;;;;4911231;29;20032;-75
2022/10/27 00:56:56;;;;;;;3.60;1.20;;;17.00;90.80;;;;;;4913576;29;20494;-76
2022/10/27 00:59:23;;;;;;;2.72;1.20;;;17.00;90.90;;;;;;4910929;29;20696;-77
2022/10/27 01:01:51;;;;;;;2.97;1.35;;;17.00;90.90;;;;;;4910801;29;20028;-77
2022/10/27 01:04:35;;;;;;;2.58;1.20;;;17.10;90.90;;;;;;4910641;29;20040;-77
2022/10/27 01:07:01;;;;;;;2.70;1.17;;;17.00;90.90;;;;;;4912013;29;20028;-77
2022/10/27 01:09:27;;;;;;;3.25;1.40;;;17.00;91.00;;;;;;4910638;29;20044;-76
2022/10/27 01:11:52;;;;;;;2.83;1.20;;;17.00;91.00;;;;;;4911546;29;20032;-76
2022/10/27 01:14:18;;;;;;;2.13;1.10;;;17.00;91.00;;;;;;4911840;29;20495;-76
2022/10/27 01:17:18;;;;;;;3.15;1.20;;;17.00;91.00;;;;;;4911805;29;20495;-77
2022/10/27 01:19:50;;;;;;;2.75;1.30;;;16.90;91.00;;;;;;4915294;29;20502;-76
2022/10/27 01:22:41;;;;;;;4.00;1.48;;;16.90;91.00;;;;;;4911901;29;20035;-76
2022/10/27 01:25:31;;;;;;;2.83;1.40;;;17.00;91.10;;;;;;4872056;29;20044;-77
2022/10/27 01:28:12;;;;;;;2.17;1.13;;;17.00;91.10;;;;;;4909898;29;20020;-76
2022/10/27 01:30:56;;;;;;;3.17;1.35;;;17.00;91.10;;;;;;4909922;29;20028;-76
2022/10/27 01:33:30;;;;;;;2.80;1.30;;;16.90;91.10;;;;;;4893043;29;20028;-76
2022/10/27 01:36:06;;;;;;;3.20;1.17;;;16.90;91.10;;;;;;4909918;29;20028;-76
2022/10/27 01:38:43;;;;;;;2.45;1.30;;;16.90;91.10;;;;;;4909803;29;20096;-77
2022/10/27 01:41:17;;;;;;;3.00;1.40;;;16.90;91.10;;;;;;4905837;29;20084;-75
2022/10/27 01:43:45;;;;;;;3.20;1.10;;;17.00;91.10;;;;;;4910433;29;20028;-75
2022/10/27 01:46:12;;;;;;;2.42;1.30;;;17.00;91.00;;;;;;4910706;29;20549;-76
2022/10/27 01:48:38;;;;;;;1.98;1.10;;;17.00;90.90;;;;;;4910267;29;20039;-76
2022/10/27 01:51:06;;;;;;;2.80;1.05;;;17.00;90.90;;;;;;4908342;29;20459;-76
2022/10/27 01:53:38;;;;;;;3.70;1.38;;;17.00;90.90;;;;;;4910592;29;20028;-75
2022/10/27 01:56:03;;;;;;;1.58;1.05;;;17.10;90.90;;;;;;4902505;29;20383;-77
2022/10/27 01:58:35;;;;;;;2.00;1.20;;;17.00;90.80;;;;;;4909583;29;20039;-76
2022/10/27 02:01:22;;;;;;;2.95;1.30;;;16.90;90.80;;;;;;4890449;29;20040;-76
2022/10/27 02:04:12;;;;;;;3.08;1.25;;;17.00;91.10;;;;;;4890738;29;20531;-75
2022/10/27 02:06:47;;;;;;;2.63;1.30;;;17.00;90.90;;;;;;4892058;29;20037;-76
2022/10/27 02:09:19;;;;;;;2.83;1.23;;;17.00;91.00;;;;;;4875267;29;20047;-76
2022/10/27 02:11:50;;;;;;;2.67;1.30;;;16.90;91.00;;;;;;4899756;29;20107;-76
2022/10/27 02:14:16;;;;;;;2.50;1.20;;;17.00;91.00;;;;;;4910800;29;20031;-76
2022/10/27 02:16:45;;;;;;;3.22;1.35;;;16.90;91.00;;;;;;4909218;29;20036;-76
2022/10/27 02:19:36;;;;;;;4.10;1.70;;;16.90;91.00;;;;;;4909147;29;20122;-76
2022/10/27 02:22:03;;;;;;;2.85;1.50;;;16.90;91.00;;;;;;4909196;29;20035;-76
2022/10/27 02:24:30;;;;;;;2.22;1.20;;;16.90;91.00;;;;;;4910172;29;20034;-76
2022/10/27 02:27:14;;;;;;;2.17;1.30;;;16.90;91.00;;;;;;4909444;29;20024;-76
2022/10/27 02:29:46;;;;;;;2.35;1.40;;;16.90;91.00;;;;;;4909830;29;20034;-76
2022/10/27 02:32:19;;;;;;;2.17;1.40;;;16.90;91.00;;;;;;4908990;29;20414;-76
2022/10/27 02:34:46;;;;;;;2.67;1.30;;;16.90;91.00;;;;;;4909717;29;20748;-76
2022/10/27 02:37:24;;;;;;;2.10;1.20;;;16.90;91.00;;;;;;4891724;29;20028;-76
2022/10/27 02:39:50;;;;;;;3.13;1.42;;;16.90;91.00;;;;;;4895784;29;20043;-75
2022/10/27 02:42:15;;;;;;;2.67;1.27;;;16.90;91.00;;;;;;4908570;29;20027;-76
2022/10/27 02:44:41;;;;;;;2.05;1.15;;;16.90;91.00;;;;;;4889773;29;20111;-76
2022/10/27 02:47:06;;;;;;;2.15;1.17;;;16.90;91.00;;;;;;4904995;29;20020;-77
2022/10/27 02:49:32;;;;;;;2.20;1.10;;;16.90;90.90;;;;;;4892577;29;20044;-75
2022/10/27 02:51:57;;;;;;;3.60;1.50;;;16.90;90.90;;;;;;4908723;29;20043;-76
2022/10/27 02:54:23;;;;;;;3.15;1.40;;;17.00;90.90;;;;;;4908483;29;20032;-76
2022/10/27 02:56:48;;;;;;;2.13;1.20;;;17.00;90.80;;;;;;4910049;29;20056;-76
2022/10/27 02:59:14;;;;;;;3.05;1.25;;;17.00;90.80;;;;;;4908476;29;20490;-76
2022/10/27 03:01:39;;;;;;;3.85;1.42;;;17.00;90.80;;;;;;4909499;29;20119;-77
2022/10/27 03:04:05;;;;;;;2.33;1.17;;;17.00;90.80;;;;;;4909295;29;20044;-76
2022/10/27 03:06:31;;;;;;;2.80;1.30;;;17.00;90.80;;;;;;4907999;29;20032;-75
2022/10/27 03:08:56;;;;;;;2.95;1.20;;;16.90;90.80;;;;;;4908903;29;20036;-75
2022/10/27 03:11:22;;;;;;;2.05;1.30;;;16.90;90.90;;;;;;4907712;29;20036;-76
2022/10/27 03:13:47;;;;;;;2.42;1.30;;;16.80;90.90;;;;;;4908695;29;20032;-75
2022/10/27 03:16:13;;;;;;;2.13;1.40;;;16.90;90.90;;;;;;4907276;29;20035;-75
2022/10/27 03:18:38;;;;;;;2.10;1.30;;;16.90;90.90;;;;;;4907934;29;20479;-75
2022/10/27 03:21:04;;;;;;;2.88;1.40;;;16.90;90.90;;;;;;4906373;29;20111;-76
2022/10/27 03:23:29;;;;;;;2.15;1.20;;;16.90;91.00;;;;;;4891300;29;20036;-76
2022/10/27 03:25:55;;;;;;;2.88;1.30;;;16.90;91.00;;;;;;4907644;29;20865;-76
2022/10/27 03:28:20;;;;;;;1.92;1.20;;;16.90;91.00;;;;;;4906771;29;20119;-75
2022/10/27 03:30:46;;;;;;;2.95;1.30;;;16.90;91.00;;;;;;4905954;29;20077;-75
2022/10/27 03:33:11;;;;;;;2.28;1.30;;;16.90;91.00;;;;;;4891050;29;20043;-76
2022/10/27 03:35:37;;;;;;;3.45;1.50;;;16.90;91.00;;;;;;4908318;29;20391;-76
2022/10/27 03:38:03;;;;;;;3.03;1.40;;;16.90;91.00;;;;;;4908391;29;20115;-76
2022/10/27 03:40:29;;;;;;;2.80;1.25;;;16.90;91.00;;;;;;4907026;29;20028;-76
2022/10/27 03:42:57;;;;;;;2.47;1.30;;;16.90;91.00;;;;;;4905081;29;20028;-76
2022/10/27 03:45:25;;;;;;;2.70;1.33;;;16.90;91.00;;;;;;4905935;29;20056;-77
2022/10/27 03:47:59;;;;;;;3.03;1.27;;;16.80;91.00;;;;;;4906929;29;20104;-76
2022/10/27 03:50:24;;;;;;;2.97;1.60;;;16.90;91.00;;;;;;4903210;29;20032;-76
2022/10/27 03:52:50;;;;;;;2.63;1.20;;;16.90;90.90;;;;;;4907778;29;20043;-77
2022/10/27 03:55:15;;;;;;;2.90;1.20;;;17.00;90.90;;;;;;4910130;29;20051;-77
2022/10/27 03:57:41;;;;;;;3.35;1.50;;;16.90;90.80;;;;;;4910016;29;20039;-76
2022/10/27 04:00:07;;;;;;;1.95;1.13;;;16.90;90.80;;;;;;4909402;29;20067;-76
2022/10/27 04:02:33;;;;;;;2.03;1.17;;;16.90;90.80;;;;;;4875473;29;1043527;-77
2022/10/27 04:04:58;;;;;;;2.40;1.27;;;16.90;90.80;;;;;;4910503;29;20123;-76
2022/10/27 04:07:24;;;;;;;2.05;1.23;;;17.00;90.80;;;;;;4912289;29;20020;-77
2022/10/27 04:09:49;;;;;;;2.35;1.30;;;16.90;90.80;;;;;;4909557;29;20470;-76
2022/10/27 04:12:15;;;;;;;2.55;1.30;;;16.90;90.80;;;;;;4910193;29;20033;-75
2022/10/27 04:14:40;;;;;;;2.75;1.50;;;16.90;90.90;;;;;;4910856;29;20032;-76
2022/10/27 04:17:06;;;;;;;2.47;1.40;;;16.90;90.90;;;;;;4909949;29;20028;-76
2022/10/27 04:19:31;;;;;;;2.63;1.35;;;16.90;90.90;;;;;;4911339;29;20408;-76
2022/10/27 04:21:57;;;;;;;2.75;1.50;;;16.90;90.90;;;;;;4905655;29;20039;-78
2022/10/27 04:24:22;;;;;;;3.15;1.30;;;16.80;90.90;;;;;;4909766;29;20056;-75
2022/10/27 04:26:48;;;;;;;3.17;1.75;;;16.80;90.90;;;;;;4903362;29;20032;-75
2022/10/27 04:29:13;;;;;;;2.00;1.38;;;16.90;91.00;;;;;;4912208;29;20110;-76
2022/10/27 04:31:39;;;;;;;3.28;1.40;;;16.80;90.90;;;;;;4907625;29;20091;-77
2022/10/27 04:34:04;;;;;;;3.33;1.50;;;16.90;91.00;;;;;;4911138;29;20585;-77
2022/10/27 04:36:30;;;;;;;2.00;1.20;;;16.80;91.00;;;;;;4910024;29;20040;-77
2022/10/27 04:38:55;;;;;;;2.45;1.30;;;16.80;91.00;;;;;;4911998;29;20039;-76
2022/10/27 04:41:21;;;;;;;2.30;1.40;;;16.80;90.90;;;;;;4910598;29;20024;-77
2022/10/27 04:43:50;;;;;;;2.50;1.40;;;16.80;91.00;;;;;;4891287;29;20037;-75
2022/10/27 04:46:16;;;;;;;2.28;1.40;;;16.90;91.00;;;;;;4902270;29;20087;-76
2022/10/27 04:48:41;;;;;;;3.50;1.50;;;16.80;91.00;;;;;;4912492;29;20032;-75
2022/10/27 04:51:07;;;;;;;3.10;1.50;;;16.80;90.90;;;;;;4911948;29;20515;-75
2022/10/27 04:53:33;;;;;;;2.83;1.50;;;16.80;90.90;;;;;;4912640;29;20043;-76
2022/10/27 04:55:58;;;;;;;2.47;1.40;;;16.90;90.90;;;;;;4910864;29;20028;-78
2022/10/27 04:58:24;;;;;;;2.03;1.30;;;16.90;90.90;;;;;;4912474;29;20062;-76
2022/10/27 05:00:49;;;;;;;2.00;1.30;;;16.90;90.80;;;;;;4908262;29;20032;-77
2022/10/27 05:03:15;;;;;;;3.08;1.30;;;16.90;90.80;;;;;;4913292;29;20048;-77
2022/10/27 05:05:40;;;;;;;2.50;1.38;;;16.90;90.70;;;;;;4912252;29;20111;-76
2022/10/27 05:08:08;;;;;;;2.60;1.30;;;16.90;90.70;;;;;;4911780;29;20060;-76
2022/10/27 05:10:34;;;;;;;3.03;1.50;;;16.90;90.70;;;;;;4930233;29;20494;-77
2022/10/27 05:13:00;;;;;;;2.72;1.20;;;16.90;90.70;;;;;;4910416;29;20159;-77
2022/10/27 05:15:26;;;;;;;3.15;1.40;;;16.90;90.80;;;;;;4911771;29;20110;-76
2022/10/27 05:17:51;;;;;;;3.20;1.30;;;16.90;90.80;;;;;;4912122;29;20039;-78
2022/10/27 05:20:17;;;;;;;1.98;1.20;;;16.90;90.90;;;;;;4911547;29;20434;-76
2022/10/27 05:22:43;;;;;;;2.58;1.30;;;16.80;90.90;;;;;;4910657;29;20035;-77
2022/10/27 05:25:09;;;;;;;2.70;1.52;;;16.80;90.90;;;;;;4911295;29;20386;-77
2022/10/27 05:27:35;;;;;;;2.90;1.50;;;16.80;90.90;;;;;;4911878;29;20510;-78
2022/10/27 05:30:01;;;;;;;2.75;1.35;;;16.80;90.90;;;;;;4894794;29;20067;-76
2022/10/27 05:32:27;;;;;;;2.55;1.40;;;16.90;90.90;;;;;;4908839;29;20513;-76
2022/10/27 05:34:52;;;;;;;2.53;1.20;;;16.80;90.90;;;;;;4910478;29;20113;-76
2022/10/27 05:37:18;;;;;;;2.28;1.40;;;16.70;90.90;;;;;;4908354;29;20036;-78
2022/10/27 05:39:43;;;;;;;2.90;1.45;;;16.90;91.00;;;;;;4909419;29;20434;-76
2022/10/27 05:42:09;;;;;;;2.47;1.25;;;16.80;90.90;;;;;;4910861;29;20029;-75
2022/10/27 05:44:35;;;;;;;2.53;1.30;;;16.80;90.90;;;;;;4909520;29;20383;-77
2022/10/27 05:47:00;;;;;;;2.17;1.30;;;16.80;90.90;;;;;;4907310;29;20035;-76
2022/10/27 05:49:26;;;;;;;2.10;1.30;;;16.80;90.90;;;;;;4909044;29;20036;-77
2022/10/27 05:51:51;;;;;;;2.97;1.40;;;16.80;90.90;;;;;;4909021;29;20032;-77
2022/10/27 05:54:18;;;;;;;2.47;1.40;;;16.80;90.90;;;;;;4909961;29;20036;-78
2022/10/27 05:56:44;;;;;;;2.47;1.45;;;16.80;90.90;;;;;;4909207;29;20111;-76
2022/10/27 05:59:10;;;;;;;2.33;1.20;;;16.80;90.90;;;;;;4909524;29;20043;-76
2022/10/27 06:01:36;;;;;;;2.08;1.30;;;16.90;90.80;;;;;;4891878;29;20036;-76
2022/10/27 06:04:02;;;;;;;2.10;1.10;;;16.80;90.80;;;;;;4902385;29;20503;-76
2022/10/27 06:06:27;;;;;;;3.08;1.30;;;16.90;90.70;;;;;;4891945;29;20039;-76
2022/10/27 06:08:53;;;;;;;2.53;1.40;;;16.90;90.70;;;;;;4906543;29;20043;-77
2022/10/27 06:11:19;;;;;;;2.35;1.50;;;16.90;90.70;;;;;;4902280;29;20041;-77
2022/10/27 06:13:49;;;;;;;2.53;1.30;;;16.90;90.70;;;;;;4911007;29;20060;-77
2022/10/27 06:16:14;;;;;;;3.08;1.67;;;16.90;90.70;;;;;;4909614;29;20118;-77
2022/10/27 06:18:40;;;;;;;3.55;1.45;;;16.70;90.70;;;;;;4909557;29;20115;-77
2022/10/27 06:21:05;;;;;;;2.60;1.40;;;16.90;90.80;;;;;;4908689;29;20028;-77
2022/10/27 06:23:31;;;;;;;2.60;1.50;;;16.80;90.80;;;;;;4909404;29;20036;-77
2022/10/27 06:25:56;;;;;;;2.78;1.58;;;16.80;90.80;;;;;;4908010;29;20135;-76
2022/10/27 06:28:22;;;;;;;2.50;1.33;;;16.90;90.80;;;;;;4910151;29;20713;-78
2022/10/27 06:30:47;;;;;;;2.15;1.30;;;16.80;90.70;;;;;;4908951;29;20117;-77
2022/10/27 06:33:13;;;;;;;2.20;1.40;;;16.80;90.70;;;;;;4911779;29;20029;-78
2022/10/27 06:35:38;;;;;;;1.83;1.13;;;16.90;90.70;;;;;;4909758;29;20020;-78
2022/10/27 06:38:04;;;;;;;2.38;1.20;;;16.90;90.70;;;;;;4909307;29;20494;-80
2022/10/27 06:40:30;;;;;;;2.35;1.35;;;16.90;90.70;;;;;;4909104;29;20036;-78
2022/10/27 06:42:55;;;;;;;2.92;1.55;;;16.90;90.60;;;;;;4910069;29;20069;-80
2022/10/27 06:45:21;;;;;;;2.70;1.42;;;16.90;90.60;;;;;;4911200;29;20095;-77
2022/10/27 06:47:57;;;;;;;4.15;1.48;;;16.90;90.60;;;;;;4909804;29;20024;-76
2022/10/27 06:50:23;;;;;;;2.33;1.30;;;17.00;90.60;;;;;;4908745;29;20064;-77
2022/10/27 06:52:50;;;;;;;1.95;1.30;;;16.90;90.60;;;;;;4910375;29;20056;-77
2022/10/27 06:55:15;;;;;;;2.05;1.30;;;17.00;90.60;;;;;;4912568;29;20499;-77
2022/10/27 06:57:42;;;;;;;2.53;1.38;;;16.90;90.50;;;;;;4929212;29;20063;-76
2022/10/27 07:00:09;;;;;;;2.50;1.50;;;17.00;90.50;;;;;;4930079;29;20067;-79
2022/10/27 07:02:35;;;;;;;3.67;1.50;;;17.00;90.50;;;;;;4927406;29;20109;-77
2022/10/27 07:05:01;;;;;;;3.63;1.40;;;17.00;90.40;;;;;;4928976;29;20040;-78
2022/10/27 07:07:26;;;;;;;2.63;1.33;;;17.10;90.30;;;;;;4929693;29;20038;-80
2022/10/27 07:09:52;;;;;;;2.13;1.40;;;17.00;90.20;;;;;;4929361;29;20040;-78
2022/10/27 07:12:17;;;;;;;3.38;1.45;;;17.00;90.10;;;;;;4930784;29;20043;-77
2022/10/27 07:14:43;;;;;;;3.90;1.60;;;17.10;90.10;;;;;;4929709;29;20046;-78
2022/10/27 07:17:08;;;;;;;2.95;1.40;;;17.10;90.00;;;;;;4929394;29;20027;-79
2022/10/27 07:19:34;;;;;;;4.05;1.50;;;17.10;90.00;;;;;;4930742;29;20393;-77
2022/10/27 07:22:00;;;;;;;2.83;1.30;;;17.10;90.00;;;;;;4929996;29;20028;-78
2022/10/27 07:24:25;;;;;;;3.40;1.38;;;17.10;90.00;;;;;;4929340;29;20034;-77
2022/10/27 07:26:51;;;;;;;2.17;1.30;;;17.10;90.00;;;;;;4928524;29;20545;-76
2022/10/27 07:29:16;;;;;;;3.33;1.50;;;17.20;90.00;;;;;;4929548;29;20633;-80
2022/10/27 07:31:46;;;;;;;4.20;1.80;;;17.20;90.00;;;;;;4929649;29;20123;-77
2022/10/27 07:34:12;;;;;;;3.88;1.50;;;17.20;89.80;;;;;;4929474;29;20106;-77
2022/10/27 07:36:38;;;;;;;3.75;1.48;;;17.20;89.90;;;;;;4929623;29;20502;-77
2022/10/27 07:39:04;;;;;;;4.00;1.70;;;17.20;89.90;;;;;;4929093;29;20067;-77
2022/10/27 07:41:30;;;;;;;2.30;1.40;;;17.20;90.00;;;;;;4926668;29;20028;-77
2022/10/27 07:43:55;;;;;;;3.00;1.33;;;17.20;90.00;;;;;;4929592;29;20067;-77
2022/10/27 07:46:21;;;;;;;3.88;1.63;;;17.10;90.00;;;;;;4929000;29;20039;-78
2022/10/27 07:48:46;;;;;;;2.20;1.23;;;17.10;90.00;;;;;;4928513;29;20039;-78
2022/10/27 07:51:12;;;;;;;3.03;1.70;;;17.10;90.00;;;;;;4926950;29;20746;-78
2022/10/27 07:53:37;;;;;;;2.83;1.60;;;17.10;90.00;;;;;;4932062;29;20070;-80
2022/10/27 07:56:03;;;;;;;3.67;1.50;;;17.20;89.90;;;;;;4920100;29;20028;-79
2022/10/27 07:58:29;;;;;;;2.65;1.58;;;17.20;89.80;;;;;;4911999;29;20028;-79
2022/10/27 08:00:56;;;;;;;2.55;1.38;;;17.20;89.80;;;;;;4909900;29;20693;-80
2022/10/27 08:03:25;;;;;;;2.85;1.50;;;17.20;89.60;;;;;;4910975;29;20032;-79
2022/10/27 08:05:51;;;;;;;3.10;1.50;;;17.30;89.40;;;;;;4910131;29;20024;-80
2022/10/27 08:08:17;;;;;;;2.78;1.50;;;17.40;89.10;;;;;;4908334;29;21008;-79
2022/10/27 08:10:44;;;;;;;2.80;1.60;;;17.50;88.70;;;;;;4908645;29;20410;-78
2022/10/27 08:13:10;;;;;;;2.40;1.50;;;17.60;88.30;;;;;;4894139;29;20040;-80
2022/10/27 08:15:37;;;;;;;3.60;1.80;;;17.60;88.00;;;;;;4914392;29;20040;-80
2022/10/27 08:18:03;;;;;;;3.40;1.70;;;17.70;87.70;;;;;;4912921;29;20409;-79
2022/10/27 08:20:31;;;;;;;4.15;1.70;;;17.90;87.70;;;;;;4913374;29;20040;-79
2022/10/27 08:22:58;;;;;;;3.55;1.40;;;17.80;87.50;;;;;;4896239;29;20096;-79
2022/10/27 08:25:24;;;;;;;3.15;1.55;;;17.80;87.40;;;;;;4911166;29;20446;-79
2022/10/27 08:27:50;;;;;;;2.78;1.50;;;17.90;87.30;;;;;;4896590;29;20031;-83
2022/10/27 08:30:15;;;;;;;3.22;1.60;;;17.90;87.10;;;;;;4913219;29;20506;-78
2022/10/27 08:32:41;;;;;;;3.72;1.73;;;17.90;87.00;;;;;;4910634;29;20028;-79
2022/10/27 08:35:07;;;;;;;2.90;1.60;;;17.90;86.90;;;;;;4911876;29;20035;-79
2022/10/27 08:37:33;;;;;;;3.22;1.83;;;17.90;86.90;;;;;;4895364;29;20765;-80
2022/10/27 08:39:58;;;;;;;2.80;1.45;;;18.00;86.80;;;;;;4910452;29;20020;-79
2022/10/27 08:42:40;;;;;;;3.05;1.60;;;18.00;86.70;;;;;;4911241;29;20021;-78
2022/10/27 08:45:06;;;;;;;2.42;1.45;;;18.10;86.50;;;;;;4914895;29;20383;-78
2022/10/27 08:47:32;;;;;;;3.22;1.70;;;18.10;86.40;;;;;;4915769;29;20021;-79
2022/10/27 08:50:18;;;;;;;3.22;1.50;;;18.10;86.40;;;;;;4898354;29;20050;-79
2022/10/27 08:52:47;;;;;;;2.83;1.48;;;18.00;86.50;;;;;;4915546;29;20382;-80
2022/10/27 08:55:13;;;;;;;3.10;1.73;;;18.00;86.40;;;;;;4914891;29;20193;-78
2022/10/27 08:57:53;;;;;;;2.35;1.60;;;17.90;86.30;;;;;;4913565;29;20513;-80
2022/10/27 09:00:19;;;;;;;2.45;1.40;;;18.10;86.50;;;;;;4897829;29;20067;-79
2022/10/27 09:02:47;;;;;;;3.45;1.55;;;18.20;86.60;;;;;;4914702;29;20055;-78
2022/10/27 09:05:33;;;;;;;2.92;1.48;;;18.10;86.30;;;;;;4916357;29;20020;-80
2022/10/27 09:08:11;;;;;;;4.07;1.50;;;18.10;86.40;;;;;;4917744;29;20038;-79
2022/10/27 09:11:18;;;;;;;2.85;1.30;;;18.10;86.30;;;;;;4915851;29;20460;-79
2022/10/27 09:14:02;;;;;;;3.03;1.40;;;18.10;86.20;;;;;;4889293;29;20063;-79
2022/10/27 09:16:41;;;;;;;2.63;1.75;;;18.20;86.30;;;;;;4915633;29;20059;-80
2022/10/27 09:19:15;;;;;;;2.53;1.50;;;18.20;86.30;;;;;;4911840;29;20035;-78
2022/10/27 09:21:43;;;;;;;2.45;1.58;;;18.20;86.40;;;;;;4915229;29;20035;-78
2022/10/27 09:24:14;;;;;;;2.83;1.42;;;18.20;86.40;;;;;;4918342;29;20457;-79
2022/10/27 09:26:41;;;;;;;2.90;1.50;;;18.20;86.40;;;;;;4913098;29;20020;-79
2022/10/27 09:29:19;;;;;;;2.65;1.52;;;18.20;86.40;;;;;;4910636;29;20044;-78
2022/10/27 09:32:14;;;;;;;3.08;1.55;;;18.10;86.40;;;;;;4912265;29;20032;-77
2022/10/27 09:34:50;;;;;;;3.40;1.70;;;18.20;86.50;;;;;;4905757;29;20406;-79
2022/10/27 09:37:17;;;;;;;2.03;1.30;;;18.20;86.90;;;;;;4910775;29;20027;-78
2022/10/27 09:39:51;;;;;;;2.03;1.33;;;18.20;86.40;;;;;;4910400;29;20115;-78
2022/10/27 09:42:17;;;;;;;2.65;1.38;;;18.20;86.40;;;;;;4911514;29;20352;-78
2022/10/27 09:44:58;;;;;;;2.35;1.50;;;18.20;86.50;;;;;;4909380;29;20032;-77
2022/10/27 09:47:25;;;;;;;;;;;18.20;86.50;;;;;;4896305;29;20020;-76
2022/10/27 09:49:52;;;;;;;2.75;1.50;;;18.20;86.50;;;;;;4918194;29;19914;-77
2022/10/27 09:52:33;;;;;;;2.55;1.50;;;18.10;86.50;;;;;;4930251;29;20425;-77
2022/10/27 09:54:58;;;;;;;1.95;1.40;;;18.10;86.60;;;;;;4929609;29;20024;-77
2022/10/27 09:57:28;;;;;;;2.42;1.40;;;18.20;86.60;;;;;;4929553;29;20043;-77
2022/10/27 09:59:58;;;;;;;3.08;1.60;;;18.20;86.70;;;;;;4929258;29;20059;-77
2022/10/27 10:02:26;;;;;;;3.25;1.60;;;18.10;86.60;;;;;;4921663;29;20075;-76
2022/10/27 10:04:53;;;;;;;2.17;1.40;;;18.20;86.70;;;;;;4911259;29;21085;-77
2022/10/27 10:07:39;;;;;;;2.58;1.50;;;18.20;86.60;;;;;;4913255;29;20498;-82
2022/10/27 10:10:19;;;;;;;3.80;1.50;;;18.20;86.50;;;;;;4908873;29;20028;-76
2022/10/27 10:12:44;;;;;;;2.25;1.40;;;18.30;86.40;;;;;;4911001;29;20483;-76
2022/10/27 10:15:10;;;;;;;2.92;1.42;;;18.30;86.40;;;;;;4908716;29;20080;-79
2022/10/27 10:17:53;;;;;;;2.78;1.40;;;18.20;86.40;;;;;;4910458;29;20414;-77
2022/10/27 10:20:41;;;;;;;3.03;1.30;;;18.30;86.50;;;;;;4902020;29;20115;-77
2022/10/27 10:23:28;;;;;;;2.42;1.45;;;18.20;86.40;;;;;;4928638;29;20015;-77
2022/10/27 10:25:57;;;;;;;2.80;1.45;;;18.20;86.40;;;;;;4929809;29;20027;-77
2022/10/27 10:28:35;;;;;;;2.35;1.50;;;18.20;86.60;;;;;;4929942;29;20027;-77
2022/10/27 10:31:04;;;;;;;2.95;1.30;;;18.20;86.70;;;;;;4929486;29;20110;-78
2022/10/27 10:33:36;;;;;;;2.67;1.40;;;18.10;86.80;;;;;;4913015;29;20024;-77
2022/10/27 10:36:15;;;;;;;;;;;18.20;86.70;;;;;;4894140;29;20176;-76
2022/10/27 10:38:47;;;;;;;2.03;1.40;;;18.20;86.70;;;;;;4908922;29;19907;-76
2022/10/27 10:41:20;;;;;;;3.85;1.50;;;18.30;86.70;;;;;;4908952;29;20061;-77
2022/10/27 10:43:45;;;;;;;2.03;1.27;;;18.30;86.70;;;;;;4910863;29;20082;-77
2022/10/27 10:46:22;;;;;;;2.55;1.50;;;18.30;86.60;;;;;;4910846;29;20103;-77
2022/10/27 10:48:56;;;;;;;1.98;1.38;;;18.30;86.60;;;;;;4909447;29;20088;-77
2022/10/27 10:51:31;;;;;;;2.47;1.50;;;18.30;86.60;;;;;;4908784;29;20028;-77
2022/10/27 10:54:22;;;;;;;2.28;1.40;;;18.30;86.70;;;;;;4894584;29;20474;-77
2022/10/27 10:56:51;;;;;;;2.25;1.30;;;18.20;86.60;;;;;;4905223;29;20624;-77
2022/10/27 10:59:21;;;;;;;2.40;1.27;;;18.30;86.60;;;;;;4909333;29;20115;-76
2022/10/27 11:02:25;;;;;;;2.90;1.45;;;18.30;86.60;;;;;;4908247;29;20120;-76
2022/10/27 11:04:51;;;;;;;2.60;1.50;;;18.20;86.60;;;;;;4907455;29;20111;-76
2022/10/27 11:07:24;;;;;;;2.83;1.67;;;18.30;86.70;;;;;;4908804;29;20032;-76
2022/10/27 11:10:05;;;;;;;2.35;1.23;;;18.30;86.70;;;;;;4908880;29;20066;-80
2022/10/27 11:12:34;;;;;;;;;;;18.30;86.60;;;;;;4905923;29;20040;-78
2022/10/27 11:15:06;;;;;;;2.28;1.40;;;18.40;86.50;;;;;;4909960;29;19978;-77
2022/10/27 11:17:33;;;;;;;;;;;18.50;86.40;;;;;;4908780;29;20035;-77
2022/10/27 11:20:01;;;;;;;3.35;1.50;;;18.40;86.30;;;;;;4900177;29;19915;-77
2022/10/27 11:22:27;;;;;;;2.55;1.40;;;18.40;86.20;;;;;;4909774;29;20200;-77
2022/10/27 11:25:14;;;;;;;2.08;1.40;;;18.40;86.20;;;;;;4908062;29;20031;-77
2022/10/27 11:28:15;;;;;;;2.63;1.27;;;18.40;86.30;;;;;;4909036;29;20028;-78
2022/10/27 11:30:59;;;;;;;1.88;1.27;;;18.30;86.50;;;;;;4887019;29;20095;-77
2022/10/27 11:33:52;;;;;;;2.80;1.50;;;18.30;86.60;;;;;;4909189;29;20024;-76
2022/10/27 11:36:32;;;;;;;2.65;1.30;;;18.30;86.70;;;;;;4909371;29;20144;-77
2022/10/27 11:39:07;;;;;;;1.67;1.30;;;18.30;86.70;;;;;;4909344;29;20035;-77
2022/10/27 11:41:53;;;;;;;2.92;1.67;;;18.30;86.80;;;;;;4910492;29;20028;-78
2022/10/27 11:44:37;;;;;;;3.33;1.50;;;18.30;86.90;;;;;;4908524;29;20056;-78
2022/10/27 11:47:11;;;;;;;2.20;1.25;;;18.30;87.00;;;;;;4904203;29;20118;-78
2022/10/27 11:49:49;;;;;;;2.95;1.50;;;18.30;86.90;;;;;;4892295;29;20087;-77
2022/10/27 11:52:33;;;;;;;1.98;1.20;;;18.30;87.00;;;;;;4897367;29;20031;-77
2022/10/27 11:55:01;;;;;;;2.47;1.25;;;18.30;87.00;;;;;;4909716;29;20137;-78
2022/10/27 11:57:37;;;;;;;2.10;1.23;;;18.30;87.00;;;;;;4911438;29;20060;-77
2022/10/27 12:00:22;;;;;;;2.15;1.30;;;18.20;87.10;;;;;;4910127;29;20066;-78
2022/10/27 12:03:05;;;;;;;2.22;1.20;;;18.20;87.10;;;;;;4905688;29;20054;-77
2022/10/27 12:05:59;;;;;;;2.38;1.38;;;18.20;87.10;;;;;;4909245;29;20036;-77
2022/10/27 12:08:59;;;;;;;2.28;1.20;;;18.20;87.10;;;;;;4885650;29;20032;-77
2022/10/27 12:11:30;;;;;;;;;;;18.20;87.20;;;;;;4906590;29;20024;-77
2022/10/27 12:14:06;;;;;;;2.45;1.30;;;18.20;87.00;;;;;;4909859;29;20717;-77
2022/10/27 12:16:42;;;;;;;2.47;1.23;;;18.30;86.90;;;;;;4898885;29;20016;-77
2022/10/27 12:19:23;;;;;;;2.70;1.40;;;18.30;86.80;;;;;;4909863;29;20498;-76
2022/10/27 12:22:05;;;;;;;1.92;1.20;;;18.30;86.70;;;;;;4893758;29;20035;-76
2022/10/27 12:24:42;;;;;;;1.90;1.13;;;18.30;86.70;;;;;;4912865;29;20066;-76
2022/10/27 12:27:10;;;;;;;2.53;1.30;;;18.30;86.70;;;;;;4912862;29;20486;-77
2022/10/27 12:29:42;;;;;;;2.05;1.25;;;18.30;86.80;;;;;;4912075;29;20032;-77
2022/10/27 12:32:16;;;;;;;1.67;1.15;;;18.20;87.00;;;;;;4912956;29;20035;-77
2022/10/27 12:34:53;;;;;;;3.08;1.40;;;18.20;87.10;;;;;;4910170;29;20036;-76
2022/10/27 12:37:27;;;;;;;1.80;1.20;;;18.20;87.10;;;;;;4910292;29;20036;-78
2022/10/27 12:40:01;;;;;;;1.77;1.25;;;18.20;87.20;;;;;;4911119;29;20058;-78
2022/10/27 12:42:50;;;;;;;1.52;1.10;;;18.20;87.20;;;;;;4911432;29;20032;-77
2022/10/27 12:45:37;;;;;;;2.05;1.40;;;18.20;87.30;;;;;;4913772;29;20501;-76
2022/10/27 12:48:31;;;;;;;1.73;1.20;;;18.20;87.40;;;;;;4897764;29;20028;-76
2022/10/27 12:51:02;;;;;;;2.35;1.13;;;18.20;87.40;;;;;;4918211;29;20339;-77
2022/10/27 12:53:48;;;;;;;2.63;1.20;;;18.20;87.50;;;;;;4910879;29;20457;-77
2022/10/27 12:56:33;;;;;;;3.13;1.30;;;18.20;87.60;;;;;;4917389;29;20781;-77
2022/10/27 12:59:19;;;;;;;2.17;1.30;;;18.10;87.60;;;;;;4907237;29;20050;-77
2022/10/27 13:01:56;;;;;;;2.55;1.15;;;18.10;87.70;;;;;;4912628;29;20122;-82
2022/10/27 13:04:49;;;;;;;1.33;1.00;;;18.00;87.80;;;;;;4912365;29;20032;-77
2022/10/27 13:07:32;;;;;;;2.67;1.13;;;18.00;87.80;;;;;;4906583;29;20110;-76